Airfield :
LOGIN :

Register | Disclaimer

   EN    FR    IT 

 










Legend :    VFR   Marginal VFR   IFR   Intensive IFR   Very Intensive IFR
Visi :
Ceiling :
>= 8 km
>= 3000ft
5 to 8 km
1000 to 3000 ft
1500m to 5 km
500 to 1000 ft
800 to 1500m
200 to 500 ft
< 800m
< 200 ft
Symbols :   Thunderstorms  Fog  Heavy snow  Heavy precipitations  Wind > 20 kt
SIGMETs :     Misc.  Thunderstorms  Icing  Turbulence  Mountain Waves  Volcanic Ashes






- Airport Elevation : 3006 ft
- IATA code : LEN


LELN - Leon

CURRENT METAR :
  • 240030Z AUTO 00000KT 9000 NSC M01/M01 Q1024

EXPIRED METARs :
  • 240000Z AUTO 00000KT 8000 NCD M00/M01 Q1024
  • 232330Z AUTO 00000KT 9000 NSC 02/02 Q1025
  • 232300Z AUTO 00000KT 9000 NSC 01/01 Q1025
  • 232230Z AUTO 00000KT 6000 NSC M00/M01 Q1025
  • 232200Z AUTO 00000KT 8000 NSC 00/M00 Q1025

TAF TAF LELN
Valid from the 23 at 21:00 until the 24 at 21:00 UTC


232000Z 2321/2421 VRB04KT CAVOK TX09/2416Z TN01/2406Z



MET'MAP, your aeronautical weather chart ! - Copyright ORBIFLY December 2007 - Disclaimer

ORBIFLY MET'MAP TEAM :

Programming & Development : Alexandra Zaïnal
Concept & original design : Baudouin d'Aumeries
Assistance for programming : Marc-Olivier Méhu
Technical & hardware support : Manuel Goepfert

Contact : metmap@orbifly.com




SOURCES & CREDITS :

   NOAA